SEGS

Details ICAO SEGS (GPS)
Name Galapagos - Baltra
Region Equador
Timezone Pacific/Galapagos (UTC-6.0)
Plans Departing 28
Arriving 44
Stats Elevation 207 ft / 63 m (AMSL)
Location -0.453757° -90.265914°
Runways 1
Magnetic Variation 3.487° E
Sunrise 2017-12-14 11:52:51 UTC / 2017-12-14 05:52:51 Local
Sunset 2017-12-15 00:01:40 UTC / 2017-12-14 18:01:40 Local
Advertisement - Login to hide

Runways

ID Width Length Bearing (true) Bearing (mag) Surface Threshold Offset Overrun Length
14 115 ft / 35 m 7,904 ft / 2,409 m 144.01° 140.52° Asphalt 0 ft / 0 m 330 ft / 101 m
32 115 ft / 35 m 7,904 ft / 2,409 m 324.01° 320.52° Asphalt 0 ft / 0 m 330 ft / 101 m

Approach Navaids

Runway Type Ident Frequency Range Bearing (true) Bearing (mag) Slope Elevation
14 Localiser ILB 110.90 MHz 18 nm / 33 km 144.01° 140.52° - 207 ft / 63 m (AMSL)
14 Glidescope ILB 110.90 MHz 10 nm / 19 km 144.01° 140.52° 3.00° 207 ft / 63 m (AMSL)

Map

Weather


0- 5 10 15 20 25 30 35+ Temperature / ° C

Clouds and Precipitation
Forecast for 2017-12-15 00:00 UTC. Updated 7 minutes ago

Ground ~20,000 ft ~40,000 ft Winds

METAR

SEGS 142300Z 14015KT 9999 FEW023 26/18 Q1009 A2980

TAF

Not found

Frequencies

Tower 122.20 MHz TWR
Warning: Do not use this data for real-world aviation or navigation. No guarantee of current accuracy is given.